Arock, OR

4:29 AM MDT on October 01, 2014 (GMT -0600)
Caldwell Industrial | Change Station
CLOSE
Current Station
Airport
Location: Caldwell,
Elevation: 2428 ft
Nearby Weather Stations

Elev 2428 ft 43.64 °N, 116.64 °W | Updated 14 minutes ago

Clear
Clear
46 °F
Feels Like 42 °F
N
9
Wind Variable Wind from WNW

Today
High -- | Low -- °F
--% Chance of Precip.
Yesterday
High -- | Low -- °F
Precip. -- in
7:47 AM 7:31 PM
Waxing Crescent, 46% visible
Pressure 30.10 in
Visibility 10.0 miles
Clouds Clear
Windchill 42 °F
Dew Point 32 °F
Humidity 57%
Rainfall 0.00 in
Snow Depth 0 in , 0 in , 0 in
UV 0 out of 12
Pollen 7.90 out of 12
Air Quality Not available.
Flu Activity Not available.
METAR KEUL 011015Z AUTO 30008KT 10SM CLR 08/00 A3010 RMK AO1

More Conditions Fewer Conditions

Pressure 30.10 in
Visibility 10.0 miles
Clouds Clear
Windchill 42 °F
Dew Point 32 °F
Humidity 57%
Rainfall 0.00 in
Snow Depth 0 in , 0 in , 0 in
UV 0 out of 12
Pollen 7.90 out of 12
Air Quality Not available.
Flu Activity Not available.
METAR KEUL 011015Z AUTO 30008KT 10SM CLR 08/00 A3010 RMK AO1

More Conditions Fewer Conditions

10-Day Weather Forecast

Almanac

Astronomy

Oct. 01, 2014 Rise Set
Actual Time 7:47 AM MDT 7:31 PM MDT
Civil Twilight 7:19 AM MDT 7:59 PM MDT
Nautical Twilight 6:46 AM MDT 8:32 PM MDT
Astronomical Twilight 6:12 AM MDT 9:05 PM MDT
Moon 2:58 PM MDT 12:00 AM MDT
Length of Visible Light 12h 40m
Length of Day
11h 43m
Tomorrow will be 2m 53s shorter.
Waxing Crescent, 46% of the Moon is Illuminated
Today
Waxing Crescent
Oct 1
First Quarter
Oct 8
Full
Oct 15
Last Quarter
Oct 23
New

Today's Extremes

State Highs State Lows

Community

WunderPhotos

Upload Photos

1,757,905 photos uploaded!

WunderBlogs® & News

Nearby

Snow Depth

Station Depth Elevation
Daly Lake 0 in 3600 ft
Clackamas Lake 0 in 3400 ft
Snow Mountain 0 in 6220 ft
Mt. Howard 0 in 7910 ft
King Mountain 0 in 4000 ft

Earthquake Activity

City Distance Mag. Time & Date
No recent earthquake activity has been reported nearby.
Minimum magnitude displayed is 2.5.

Coastal Water Temperatures

Place Temperature
No Stations Reporting

Nearby Weather Stations